Airfield :







YOU CAN JOIN US ON...

 
LOGIN :

Register | Disclaimer

   EN    FR    IT 

 









Legend :    VFR   Marginal VFR   IFR   Intensive IFR   Very Intensive IFR
Visi :
Ceiling :
>= 8 km
>= 3000ft
5 to 8 km
1000 to 3000 ft
1500m to 5 km
500 to 1000 ft
800 to 1500m
200 to 500 ft
< 800m
< 200 ft
Symbols :   Thunderstorms  Fog  Heavy snow  Heavy precipitations  Wind > 20 kt






- Airport Elevation : 357 ft
- IATA code : YSJ


CYSJ - Saint John

CURRENT METAR :
  • 041600Z 02012G17KT 5SM BR OVC015 03/M01 A3004 RMK SC8 SLP179

EXPIRED METARs :
  • 041500Z 03013G19KT 5SM BR OVC013 02/M01 A3005 RMK SC8 SLP181
  • 041400Z 03016G23KT 12SM VCSH BKN013 02/M01 A3004 RMK SC7 SLP180

TAF AMD TAF CYSJ
Valid from the 04 at 15:00 until the 05 at 00:00 UTC


041509Z 0415/0424 03012G22KT P6SM OVC015
TEMPO 0415/0418 5SM BR
FM041800 02010G20KT P6SM BKN030
TEMPO 0418/0423 OVC020
FM042300 01010KT P6SM SCT030 RMK NXT FCST BY 041800Z



MET'MAP, your aeronautical weather chart ! - Copyright ORBIFLY December 2007 - Disclaimer

ORBIFLY MET'MAP TEAM :

Programming & Development : Alexandra Zaïnal
Concept & original design : Baudouin d'Aumeries
Assistance for programming : Marc-Olivier Méhu
Technical & hardware support : Manuel Goepfert

Contact : metmap@orbifly.com




SOURCES & CREDITS :

   NOAA